createdAt,value
2022-11-29T00:01:06.794Z,93870.44
2022-11-29T00:03:35.241Z,93879.28
2022-11-29T00:06:07.503Z,93885.56
2022-11-29T00:08:34.631Z,93882.72
2022-11-29T00:11:09.894Z,93883.38
2022-11-29T00:13:36.572Z,93882.94
2022-11-29T00:16:08.487Z,93870.84
2022-11-29T00:18:35.390Z,93880.13
2022-11-29T00:21:06.363Z,93883.47
2022-11-29T00:23:33.489Z,93878.53
2022-11-29T00:26:07.725Z,93881.38
2022-11-29T00:28:35.482Z,93877.22
2022-11-29T00:31:13.990Z,93874.91
2022-11-29T00:33:40.699Z,93854.16
2022-11-29T00:36:07.770Z,93873.75
2022-11-29T00:38:34.443Z,93868.38
2022-11-29T00:41:01.160Z,93873.25
2022-11-29T00:43:27.811Z,93868.34
2022-11-29T00:45:54.482Z,93861.72
2022-11-29T00:48:21.231Z,93872.97
2022-11-29T00:50:47.872Z,93865.44
2022-11-29T00:53:14.680Z,93870.00
2022-11-29T00:55:41.352Z,93861.88
2022-11-29T00:58:08.020Z,93874.06
2022-11-29T01:00:34.772Z,93871.72
2022-11-29T01:03:02.225Z,93871.03
2022-11-29T01:05:31.104Z,93867.00
2022-11-29T01:07:57.904Z,93867.16
2022-11-29T01:10:25.143Z,93863.00
2022-11-29T01:12:51.842Z,93866.19
2022-11-29T01:15:18.576Z,93868.13
2022-11-29T01:17:46.575Z,93859.50
2022-11-29T01:20:13.633Z,93865.16
2022-11-29T01:22:40.642Z,93863.38
2022-11-29T01:25:08.191Z,93866.84
2022-11-29T01:27:35.199Z,93859.94
2022-11-29T01:30:01.871Z,93869.84
2022-11-29T01:32:28.592Z,93865.69
2022-11-29T01:34:55.282Z,93873.16
2022-11-29T01:37:21.974Z,93871.00
2022-11-29T01:39:48.720Z,93862.88
2022-11-29T01:42:15.522Z,93862.38
2022-11-29T01:44:45.636Z,93875.13
2022-11-29T01:47:12.789Z,93865.06
2022-11-29T01:49:41.963Z,93869.84
2022-11-29T01:52:13.641Z,93864.72
2022-11-29T01:54:47.727Z,93864.53
2022-11-29T01:57:14.607Z,93865.31
2022-11-29T01:59:47.140Z,93863.56
2022-11-29T02:02:21.206Z,93855.25
2022-11-29T02:04:48.462Z,93860.66
2022-11-29T02:07:15.709Z,93849.53
2022-11-29T02:09:42.455Z,93841.03
2022-11-29T02:12:47.653Z,93853.31
2022-11-29T02:15:14.332Z,93850.13
2022-11-29T02:17:49.994Z,93859.59
2022-11-29T02:20:47.816Z,93857.22
2022-11-29T02:23:33.042Z,93851.19
2022-11-29T02:26:18.240Z,93847.81
2022-11-29T02:28:57.082Z,93850.84
2022-11-29T02:31:52.601Z,93847.66
2022-11-29T02:34:40.839Z,93849.41
2022-11-29T02:37:38.232Z,93849.09
2022-11-29T02:40:10.862Z,93853.69
2022-11-29T02:43:09.534Z,93853.81
2022-11-29T02:45:38.612Z,93851.50
2022-11-29T02:48:23.915Z,93861.13
2022-11-29T02:51:07.001Z,93866.59
2022-11-29T02:53:42.666Z,93851.94
2022-11-29T02:56:22.421Z,93862.88
2022-11-29T02:59:08.077Z,93852.28
2022-11-29T03:02:07.527Z,93864.91
2022-11-29T03:04:41.381Z,93867.66
2022-11-29T03:07:24.214Z,93862.25
2022-11-29T03:10:11.452Z,93862.09
2022-11-29T03:12:42.174Z,93875.34
2022-11-29T03:15:31.750Z,93875.63
2022-11-29T03:18:27.323Z,93872.28
2022-11-29T03:21:19.052Z,93889.88
2022-11-29T03:23:48.503Z,93876.50
2022-11-29T03:26:21.737Z,93884.19
2022-11-29T03:28:56.635Z,93882.34
2022-11-29T03:31:33.251Z,93862.88
2022-11-29T03:34:42.308Z,93891.09
2022-11-29T03:37:19.054Z,93889.94
2022-11-29T03:40:16.182Z,93888.78
2022-11-29T03:42:54.370Z,93890.50
2022-11-29T03:45:26.519Z,93889.25
2022-11-29T03:48:05.422Z,93887.72
2022-11-29T03:50:42.436Z,93892.22
2022-11-29T03:53:15.093Z,93890.28
2022-11-29T03:55:57.661Z,93887.47
2022-11-29T03:58:24.261Z,93883.47
2022-11-29T04:00:50.921Z,93879.50
2022-11-29T04:03:44.922Z,93879.03
2022-11-29T04:06:17.550Z,93882.72
2022-11-29T04:08:54.132Z,93886.78
2022-11-29T04:11:54.943Z,93884.03
2022-11-29T04:14:52.190Z,93885.31
2022-11-29T04:17:49.763Z,93889.13
2022-11-29T04:20:40.356Z,93894.19
2022-11-29T04:23:33.094Z,93898.28
2022-11-29T04:26:17.915Z,93891.09
2022-11-29T04:29:09.172Z,93898.06
2022-11-29T04:32:20.768Z,93900.81
2022-11-29T04:35:19.432Z,93898.28
2022-11-29T04:38:00.460Z,93899.22
2022-11-29T04:40:42.388Z,93902.75
2022-11-29T04:43:46.361Z,93911.59
2022-11-29T04:46:19.205Z,93910.03
2022-11-29T04:48:56.161Z,93907.56
2022-11-29T04:51:44.111Z,93913.31
2022-11-29T04:54:33.490Z,93922.41
2022-11-29T04:57:11.883Z,93921.03
2022-11-29T04:59:52.820Z,93916.69
2022-11-29T05:02:22.579Z,93918.22
2022-11-29T05:05:04.835Z,93921.94
2022-11-29T05:07:33.971Z,93916.47
2022-11-29T05:10:26.179Z,93919.38
2022-11-29T05:13:23.873Z,93921.09
2022-11-29T05:16:16.591Z,93921.38
2022-11-29T05:18:58.406Z,93927.69
2022-11-29T05:21:33.865Z,93929.34
2022-11-29T05:24:31.402Z,93927.41
2022-11-29T05:27:16.549Z,93934.72
2022-11-29T05:30:05.021Z,93933.63
2022-11-29T05:32:50.118Z,93926.47
2022-11-29T05:35:38.429Z,93925.50
2022-11-29T05:38:14.052Z,93932.47
2022-11-29T05:40:49.722Z,93932.72
2022-11-29T05:43:37.826Z,93928.53
2022-11-29T05:46:58.567Z,93937.97
2022-11-29T05:49:37.414Z,93930.41
2022-11-29T05:52:12.917Z,93923.69
2022-11-29T05:54:50.235Z,93926.88
2022-11-29T05:57:23.034Z,93920.63
2022-11-29T05:59:50.397Z,93921.41
2022-11-29T06:02:26.055Z,93926.88
2022-11-29T06:05:08.492Z,93927.38
2022-11-29T06:07:44.778Z,93930.56
2022-11-29T06:10:26.278Z,93928.50
2022-11-29T06:13:11.497Z,93930.47
2022-11-29T06:15:56.935Z,93929.13
2022-11-29T06:18:48.935Z,93946.34
2022-11-29T06:21:51.916Z,93940.50
2022-11-29T06:24:36.520Z,93947.16
2022-11-29T06:27:18.262Z,93943.69
2022-11-29T06:29:53.093Z,93939.88
2022-11-29T06:32:34.447Z,93948.13
2022-11-29T06:35:09.996Z,93942.50
2022-11-29T06:37:43.213Z,93943.03
2022-11-29T06:40:16.414Z,93956.56
2022-11-29T06:42:43.314Z,93950.97
2022-11-29T06:45:14.692Z,93958.84
2022-11-29T06:47:44.736Z,93948.13
2022-11-29T06:50:48.321Z,93954.00
2022-11-29T06:53:23.974Z,93951.47
2022-11-29T06:56:03.007Z,93949.88
2022-11-29T06:58:57.597Z,93956.63
2022-11-29T07:01:40.202Z,93949.28
2022-11-29T07:04:28.277Z,93952.16
2022-11-29T07:06:55.306Z,93954.63
2022-11-29T07:09:26.708Z,93946.44
2022-11-29T07:11:53.748Z,93966.66
2022-11-29T07:14:20.767Z,93965.22
2022-11-29T07:17:06.905Z,93963.78
2022-11-29T07:19:42.870Z,93971.25
2022-11-29T07:22:37.468Z,93968.06
2022-11-29T07:25:32.137Z,93969.50
2022-11-29T07:28:16.805Z,93975.59
2022-11-29T07:30:54.457Z,93972.28
2022-11-29T07:33:33.645Z,93979.91
2022-11-29T07:36:12.415Z,93979.56
2022-11-29T07:39:14.506Z,93967.97
2022-11-29T07:41:47.405Z,93966.16
2022-11-29T07:44:28.615Z,93963.25
2022-11-29T07:46:55.517Z,93967.84
2022-11-29T07:49:22.278Z,93962.19
2022-11-29T07:51:49.179Z,93963.94
2022-11-29T07:54:18.488Z,93967.13
2022-11-29T07:56:45.227Z,93966.09
2022-11-29T07:59:13.071Z,93961.50
2022-11-29T08:01:40.556Z,93971.50
2022-11-29T08:04:08.518Z,93969.91
2022-11-29T08:06:36.365Z,93973.53
2022-11-29T08:09:03.899Z,93972.84
2022-11-29T08:11:30.787Z,93979.66
2022-11-29T08:13:58.904Z,93989.38
2022-11-29T08:16:25.787Z,93999.09
2022-11-29T08:18:55.616Z,94010.91
2022-11-29T08:21:22.654Z,94008.16
2022-11-29T08:23:50.295Z,94018.41
2022-11-29T08:26:18.430Z,94019.22
2022-11-29T08:28:45.307Z,94027.34
2022-11-29T08:31:13.970Z,94028.41
2022-11-29T08:33:42.975Z,94030.72
2022-11-29T08:36:12.506Z,94034.94
2022-11-29T08:38:39.347Z,94032.97
2022-11-29T08:41:08.655Z,94029.19
2022-11-29T08:43:35.768Z,94018.38
2022-11-29T08:46:02.814Z,94023.34
2022-11-29T08:48:29.619Z,93998.94
2022-11-29T08:50:56.616Z,94019.63
2022-11-29T08:53:42.209Z,94016.88
2022-11-29T08:59:06.026Z,94031.13
2022-11-29T09:01:32.909Z,94027.28
2022-11-29T09:03:59.709Z,94032.97
2022-11-29T09:06:32.187Z,94036.13
2022-11-29T09:09:00.404Z,94035.94
2022-11-29T09:11:28.695Z,94043.03
2022-11-29T09:13:58.700Z,94049.75
2022-11-29T09:16:27.633Z,94054.22
2022-11-29T09:18:55.979Z,94054.16
2022-11-29T09:21:24.997Z,94057.88
2022-11-29T09:23:58.946Z,94044.06
2022-11-29T09:26:32.008Z,94050.09
2022-11-29T09:29:01.392Z,94052.91
2022-11-29T09:31:29.906Z,94058.84
2022-11-29T09:33:56.756Z,94046.59
2022-11-29T09:36:28.109Z,94052.16
2022-11-29T09:38:56.385Z,94046.47
2022-11-29T09:41:35.903Z,94052.22
2022-11-29T09:44:17.438Z,94048.19
2022-11-29T09:47:10.345Z,94058.81
2022-11-29T09:49:56.377Z,94052.28
2022-11-29T09:52:49.717Z,94063.06
2022-11-29T09:55:43.137Z,94064.16
2022-11-29T09:58:14.217Z,94065.44
2022-11-29T10:00:49.002Z,94058.16
2022-11-29T10:03:29.948Z,94057.72
2022-11-29T10:06:00.415Z,94056.78
2022-11-29T10:08:42.104Z,94067.66
2022-11-29T10:11:14.797Z,94058.91
2022-11-29T10:13:45.825Z,94054.84
2022-11-29T10:16:22.558Z,94049.00
2022-11-29T10:18:59.069Z,94052.44
2022-11-29T10:21:30.577Z,94035.59
2022-11-29T10:24:04.862Z,94044.75
2022-11-29T10:26:35.215Z,94043.22
2022-11-29T10:29:02.292Z,94044.81
2022-11-29T10:31:33.568Z,94041.91
2022-11-29T10:34:02.055Z,94042.19
2022-11-29T10:36:42.832Z,94039.16
2022-11-29T10:39:20.037Z,94035.41
2022-11-29T10:41:50.415Z,94032.53
2022-11-29T10:44:17.220Z,94026.41
2022-11-29T10:46:43.936Z,94031.19
2022-11-29T10:49:15.098Z,94026.22
2022-11-29T10:51:41.849Z,94029.59
2022-11-29T10:54:40.474Z,94032.28
2022-11-29T10:57:15.624Z,94030.94
2022-11-29T10:59:42.426Z,94024.25
2022-11-29T11:02:20.198Z,94008.22
2022-11-29T11:04:48.219Z,94016.00
2022-11-29T11:07:25.545Z,94018.19
2022-11-29T11:09:56.205Z,94023.94
2022-11-29T11:12:34.306Z,94024.56
2022-11-29T11:15:28.224Z,94015.81
2022-11-29T11:17:57.415Z,94011.81
2022-11-29T11:20:25.335Z,94019.38
2022-11-29T11:23:01.065Z,94019.19
2022-11-29T11:25:30.347Z,94018.78
2022-11-29T11:27:58.285Z,94002.06
2022-11-29T11:30:28.256Z,93995.69
2022-11-29T11:33:07.117Z,94003.50
2022-11-29T11:35:33.938Z,94001.25
2022-11-29T11:38:00.638Z,94002.00
2022-11-29T11:40:30.560Z,94001.16
2022-11-29T11:42:59.727Z,93999.13
2022-11-29T11:45:33.804Z,94001.16
2022-11-29T11:48:13.853Z,94004.66
2022-11-29T11:50:49.706Z,94006.38
2022-11-29T11:53:23.898Z,94002.19
2022-11-29T11:55:58.167Z,94003.31
2022-11-29T11:58:28.323Z,94006.78
2022-11-29T12:01:05.659Z,94002.47
2022-11-29T12:03:57.053Z,94007.44
2022-11-29T12:06:29.555Z,94012.94
2022-11-29T12:09:20.338Z,93999.47
2022-11-29T12:12:05.814Z,93997.97
2022-11-29T12:14:39.317Z,94001.00
2022-11-29T12:17:35.940Z,94000.41
2022-11-29T12:20:33.013Z,94003.59
2022-11-29T12:23:11.979Z,94006.53
2022-11-29T12:25:46.185Z,93994.09
2022-11-29T12:28:19.980Z,94002.31
2022-11-29T12:31:07.480Z,94012.44
2022-11-29T12:34:09.615Z,94003.50
2022-11-29T12:36:53.846Z,94000.72
2022-11-29T12:39:39.229Z,93994.75
2022-11-29T12:42:43.085Z,93997.31
2022-11-29T12:45:37.774Z,93998.50
2022-11-29T12:48:24.715Z,93992.38
2022-11-29T12:51:09.989Z,93998.53
2022-11-29T12:53:45.770Z,93999.31
2022-11-29T12:56:22.377Z,93994.94
2022-11-29T12:58:52.179Z,94002.47
2022-11-29T13:01:45.069Z,94004.44
2022-11-29T13:04:36.765Z,94004.06
2022-11-29T13:07:13.977Z,94002.06
2022-11-29T13:10:02.645Z,94011.41
2022-11-29T13:13:14.016Z,94013.59
2022-11-29T13:15:51.425Z,94022.47
2022-11-29T13:18:42.263Z,94024.66
2022-11-29T13:21:15.726Z,94016.75
2022-11-29T13:24:08.394Z,94006.81
2022-11-29T13:26:36.869Z,94028.59
2022-11-29T13:29:03.785Z,94023.66
2022-11-29T13:31:31.305Z,94034.19
2022-11-29T13:33:59.557Z,94035.97
2022-11-29T13:36:34.634Z,94044.06
2022-11-29T13:39:27.425Z,94047.19
2022-11-29T13:42:11.616Z,94045.59
2022-11-29T13:45:08.087Z,94036.66
2022-11-29T13:47:58.707Z,94058.25
2022-11-29T13:50:51.548Z,94050.72
2022-11-29T13:53:23.809Z,94043.59
2022-11-29T13:56:00.165Z,94050.88
2022-11-29T13:58:39.892Z,94051.69
2022-11-29T14:01:09.165Z,94059.00
2022-11-29T14:03:43.966Z,94044.91
2022-11-29T14:06:24.296Z,94049.88
2022-11-29T14:11:48.903Z,94043.91
2022-11-29T14:14:23.201Z,94049.47
2022-11-29T14:16:53.344Z,94044.59
2022-11-29T14:19:32.836Z,94042.53
2022-11-29T14:22:03.199Z,94053.41
2022-11-29T14:24:32.876Z,94053.59
2022-11-29T14:27:14.674Z,94051.63
2022-11-29T14:29:47.589Z,94056.34
2022-11-29T14:32:29.821Z,94058.97
2022-11-29T14:35:11.841Z,94057.38
2022-11-29T14:37:59.745Z,94064.72
2022-11-29T14:40:41.840Z,94076.34
2022-11-29T14:43:31.696Z,94083.28
2022-11-29T14:46:16.916Z,94099.94
2022-11-29T14:48:55.868Z,94100.59
2022-11-29T14:51:25.404Z,94102.91
2022-11-29T14:54:16.305Z,94114.59
2022-11-29T14:56:45.143Z,94105.88
2022-11-29T14:59:42.899Z,94119.59
2022-11-29T15:02:33.131Z,94104.84
2022-11-29T15:05:17.572Z,94101.28
2022-11-29T15:07:57.503Z,94094.25
2022-11-29T15:10:27.361Z,94098.59
2022-11-29T15:12:54.224Z,94088.56
2022-11-29T15:15:30.215Z,94083.03
2022-11-29T15:18:18.378Z,94083.03
2022-11-29T15:21:03.105Z,94086.91
2022-11-29T15:23:40.195Z,94086.84
2022-11-29T15:26:16.586Z,94083.91
2022-11-29T15:28:43.460Z,94083.63
2022-11-29T15:31:12.229Z,94086.94
2022-11-29T15:33:43.995Z,94077.63
2022-11-29T15:36:18.258Z,94094.06
2022-11-29T15:38:57.014Z,94073.81
2022-11-29T15:41:27.976Z,94083.97
2022-11-29T15:43:58.902Z,94087.75
2022-11-29T15:46:27.776Z,94076.59
2022-11-29T15:48:54.662Z,94077.56
2022-11-29T15:51:27.476Z,94083.81
2022-11-29T15:54:13.851Z,94085.59
2022-11-29T15:56:50.105Z,94083.72
2022-11-29T15:59:37.534Z,94085.94
2022-11-29T16:02:10.236Z,94082.47
2022-11-29T16:04:43.576Z,94094.63
2022-11-29T16:07:13.969Z,94096.88
2022-11-29T16:09:47.056Z,94085.84
2022-11-29T16:12:16.576Z,94088.91
2022-11-29T16:14:52.173Z,94092.78
2022-11-29T16:17:27.769Z,94092.31
2022-11-29T16:20:13.833Z,94095.41
2022-11-29T16:22:40.690Z,94099.75
2022-11-29T16:25:16.275Z,94106.81
2022-11-29T16:27:43.203Z,94104.91
2022-11-29T16:30:26.702Z,94099.63
2022-11-29T16:32:58.415Z,94100.09
2022-11-29T16:35:33.329Z,94096.16
2022-11-29T16:38:03.795Z,94100.88
2022-11-29T16:40:32.429Z,94103.16
2022-11-29T16:43:06.506Z,94109.97
2022-11-29T16:45:38.443Z,94095.91
2022-11-29T16:48:24.707Z,94109.19
2022-11-29T16:51:10.457Z,94113.19
2022-11-29T16:53:46.065Z,94105.63
2022-11-29T16:56:17.675Z,94107.88
2022-11-29T16:59:21.040Z,94106.41
2022-11-29T17:01:34.722Z,94113.31
2022-11-29T17:04:01.545Z,94112.19
2022-11-29T17:06:29.016Z,94115.88
2022-11-29T17:08:57.747Z,94115.28
2022-11-29T17:11:24.806Z,94117.88
2022-11-29T17:13:51.875Z,94115.53
2022-11-29T17:16:20.977Z,94107.69
2022-11-29T17:18:48.316Z,94109.31
2022-11-29T17:21:26.539Z,94110.75
2022-11-29T17:23:54.115Z,94113.03
2022-11-29T17:26:21.686Z,94121.66
2022-11-29T17:28:50.408Z,94125.78
2022-11-29T17:31:22.753Z,94128.88
2022-11-29T17:33:50.666Z,94128.88
2022-11-29T17:36:19.462Z,94124.41
2022-11-29T17:38:46.446Z,94124.09
2022-11-29T17:41:15.809Z,94123.97
2022-11-29T17:43:42.551Z,94128.44
2022-11-29T17:46:19.119Z,94125.09
2022-11-29T17:48:46.408Z,94130.53
2022-11-29T17:51:43.868Z,94128.31
2022-11-29T17:54:03.049Z,94134.69
2022-11-29T17:56:30.016Z,94147.97
2022-11-29T17:58:59.016Z,94145.09
2022-11-29T18:01:28.137Z,94148.59
2022-11-29T18:03:57.104Z,94146.88
2022-11-29T18:06:26.378Z,94160.91
2022-11-29T18:08:55.416Z,94156.59
2022-11-29T18:11:24.881Z,94159.47
2022-11-29T18:13:53.476Z,94153.91
2022-11-29T18:16:22.418Z,94153.56
2022-11-29T18:18:55.069Z,94161.25
2022-11-29T18:21:22.231Z,94154.88
2022-11-29T18:23:49.027Z,94148.31
2022-11-29T18:26:18.626Z,94147.81
2022-11-29T18:28:45.618Z,94146.25
2022-11-29T18:31:30.305Z,94151.34
2022-11-29T18:34:01.348Z,94153.91
2022-11-29T18:36:33.486Z,94167.50
2022-11-29T18:39:02.902Z,94163.81
2022-11-29T18:41:30.877Z,94174.53
2022-11-29T18:44:02.753Z,94168.78
2022-11-29T18:46:32.459Z,94171.50
2022-11-29T18:49:01.084Z,94172.59
2022-11-29T18:51:29.087Z,94169.09
2022-11-29T18:53:56.727Z,94171.16
2022-11-29T18:56:25.607Z,94169.75
2022-11-29T18:59:00.464Z,94149.59
2022-11-29T19:01:30.258Z,94159.03
2022-11-29T19:03:58.925Z,94159.50
2022-11-29T19:06:35.411Z,94168.78
2022-11-29T19:09:06.616Z,94158.72
2022-11-29T19:11:33.736Z,94156.78
2022-11-29T19:14:05.829Z,94159.50
2022-11-29T19:16:34.178Z,94164.00
2022-11-29T19:19:01.542Z,94173.25
2022-11-29T19:21:31.297Z,94161.25
2022-11-29T19:24:07.726Z,94170.53
2022-11-29T19:26:34.627Z,94179.81
2022-11-29T19:29:01.575Z,94177.25
2022-11-29T19:31:28.598Z,94178.53
2022-11-29T19:33:55.962Z,94165.75
2022-11-29T19:36:30.734Z,94180.78
2022-11-29T19:38:59.858Z,94171.50
2022-11-29T19:41:31.929Z,94177.56
2022-11-29T19:44:01.286Z,94176.59
2022-11-29T19:46:30.837Z,94175.97
2022-11-29T19:48:59.136Z,94178.19
2022-11-29T19:51:26.936Z,94176.25
2022-11-29T19:53:55.297Z,94189.19
2022-11-29T19:56:22.717Z,94188.56
2022-11-29T19:58:49.895Z,94191.28
2022-11-29T20:01:19.498Z,94189.38
2022-11-29T20:03:46.274Z,94193.19
2022-11-29T20:06:13.737Z,94183.91
2022-11-29T20:08:41.060Z,94195.75
2022-11-29T20:11:14.785Z,94197.34
2022-11-29T20:13:43.134Z,94195.75
2022-11-29T20:16:12.269Z,94201.34
2022-11-29T20:18:45.742Z,94205.34
2022-11-29T20:21:18.905Z,94194.00
2022-11-29T20:23:45.676Z,94204.22
2022-11-29T20:26:20.299Z,94196.25
2022-11-29T20:28:47.554Z,94197.38
2022-11-29T20:31:17.284Z,94196.56
2022-11-29T20:33:46.021Z,94202.78
2022-11-29T20:36:36.761Z,94198.63
2022-11-29T20:39:34.297Z,94192.56
2022-11-29T20:42:28.982Z,94191.94
2022-11-29T20:44:58.179Z,94189.38
2022-11-29T20:47:28.550Z,94200.75
2022-11-29T20:49:55.592Z,94202.16
2022-11-29T20:52:27.915Z,94186.19
2022-11-29T20:54:54.473Z,94190.50
2022-11-29T20:57:21.630Z,94195.44
2022-11-29T20:59:48.375Z,94187.13
2022-11-29T21:02:15.372Z,94184.44
2022-11-29T21:04:42.002Z,94194.19
2022-11-29T21:07:08.677Z,94197.06
2022-11-29T21:09:35.272Z,94200.22
2022-11-29T21:12:02.080Z,94203.59
2022-11-29T21:14:28.941Z,94204.88
2022-11-29T21:16:56.831Z,94203.13
2022-11-29T21:19:25.607Z,94193.22
2022-11-29T21:22:41.846Z,94191.28
2022-11-29T21:25:17.501Z,94192.75
2022-11-29T21:27:44.470Z,94197.69
2022-11-29T21:30:19.140Z,94197.53
2022-11-29T21:32:46.222Z,94197.53
2022-11-29T21:35:13.610Z,94198.81
2022-11-29T21:37:40.631Z,94199.91
2022-11-29T21:40:07.952Z,94200.72
2022-11-29T21:42:37.385Z,94202.78
2022-11-29T21:45:08.191Z,94208.25
2022-11-29T21:47:39.938Z,94212.06
2022-11-29T21:50:07.254Z,94207.91
2022-11-29T21:52:33.998Z,94208.22
2022-11-29T21:55:00.605Z,94207.25
2022-11-29T21:57:27.226Z,94207.25
2022-11-29T21:59:53.976Z,94203.91
2022-11-29T22:02:20.629Z,94204.25
2022-11-29T22:04:47.418Z,94199.78
2022-11-29T22:07:14.063Z,94195.78
2022-11-29T22:09:40.737Z,94213.31
2022-11-29T22:12:32.017Z,94208.22
2022-11-29T22:14:53.976Z,94214.94
2022-11-29T22:17:20.574Z,94204.41
2022-11-29T22:19:47.153Z,94207.09
2022-11-29T22:22:13.774Z,94203.59
2022-11-29T22:24:40.505Z,94192.56
2022-11-29T22:27:07.201Z,94201.19
2022-11-29T22:29:33.855Z,94193.03
2022-11-29T22:32:01.311Z,94197.69
2022-11-29T22:34:28.256Z,94204.25
2022-11-29T22:36:55.356Z,94198.03
2022-11-29T22:39:21.977Z,94205.38
2022-11-29T22:41:53.952Z,94219.09
2022-11-29T22:44:21.561Z,94218.78
2022-11-29T22:46:48.403Z,94213.66
2022-11-29T22:49:15.136Z,94211.59
2022-11-29T22:51:41.951Z,94220.22
2022-11-29T22:54:11.419Z,94217.94
2022-11-29T22:56:40.335Z,94213.78
2022-11-29T22:59:07.182Z,94218.47
2022-11-29T23:01:38.250Z,94219.09
2022-11-29T23:04:07.281Z,94216.88
2022-11-29T23:06:51.831Z,94218.34
2022-11-29T23:09:22.304Z,94223.28
2022-11-29T23:11:53.783Z,94211.28
2022-11-29T23:14:22.587Z,94215.25
2022-11-29T23:16:49.529Z,94210.81
2022-11-29T23:19:16.272Z,94215.28
2022-11-29T23:21:45.601Z,94207.00
2022-11-29T23:24:12.989Z,94210.03
2022-11-29T23:26:42.678Z,94210.50
2022-11-29T23:29:12.998Z,94205.69
2022-11-29T23:31:40.221Z,94202.50
2022-11-29T23:34:07.107Z,94207.13
2022-11-29T23:36:33.799Z,94212.25
2022-11-29T23:39:00.881Z,94209.84
2022-11-29T23:41:27.557Z,94193.56
2022-11-29T23:43:54.163Z,94199.63
2022-11-29T23:46:23.317Z,94208.25
2022-11-29T23:48:50.320Z,94198.19
2022-11-29T23:51:17.509Z,94192.91
2022-11-29T23:53:44.448Z,94194.03
2022-11-29T23:56:14.469Z,94192.25
2022-11-29T23:58:41.667Z,94193.22
